sensor_id;sensor_type;location;lat;lon;timestamp;temperature;humidity
43151;DHT22;28755;51.478;5.702;2023-10-09T00:00:10;14.90;99.90
43151;DHT22;28755;51.478;5.702;2023-10-09T00:02:54;15.00;99.90
43151;DHT22;28755;51.478;5.702;2023-10-09T00:05:20;14.90;99.90
43151;DHT22;28755;51.478;5.702;2023-10-09T00:07:53;14.90;99.90
43151;DHT22;28755;51.478;5.702;2023-10-09T00:10:23;14.90;99.90
43151;DHT22;28755;51.478;5.702;2023-10-09T00:12:50;15.00;99.90
43151;DHT22;28755;51.478;5.702;2023-10-09T00:15:16;14.90;99.90
43151;DHT22;28755;51.478;5.702;2023-10-09T00:17:44;15.00;99.90
43151;DHT22;28755;51.478;5.702;2023-10-09T00:20:12;15.00;99.90
43151;DHT22;28755;51.478;5.702;2023-10-09T00:22:45;15.10;99.90
43151;DHT22;28755;51.478;5.702;2023-10-09T00:25:12;15.10;99.90
43151;DHT22;28755;51.478;5.702;2023-10-09T00:27:46;15.10;99.90
43151;DHT22;28755;51.478;5.702;2023-10-09T00:30:14;15.00;99.90
43151;DHT22;28755;51.478;5.702;2023-10-09T00:32:44;15.00;99.90
43151;DHT22;28755;51.478;5.702;2023-10-09T00:35:27;15.10;99.90
43151;DHT22;28755;51.478;5.702;2023-10-09T00:38:03;15.20;99.90
43151;DHT22;28755;51.478;5.702;2023-10-09T00:40:32;15.20;99.90
43151;DHT22;28755;51.478;5.702;2023-10-09T00:43:00;15.20;99.90
43151;DHT22;28755;51.478;5.702;2023-10-09T00:45:31;15.30;99.90
43151;DHT22;28755;51.478;5.702;2023-10-09T00:47:58;15.30;99.90
43151;DHT22;28755;51.478;5.702;2023-10-09T00:50:26;15.40;99.90
43151;DHT22;28755;51.478;5.702;2023-10-09T00:52:54;15.40;99.90
43151;DHT22;28755;51.478;5.702;2023-10-09T00:55:31;15.50;99.90
43151;DHT22;28755;51.478;5.702;2023-10-09T00:58:14;15.50;99.90
43151;DHT22;28755;51.478;5.702;2023-10-09T01:00:41;15.50;99.90
43151;DHT22;28755;51.478;5.702;2023-10-09T01:03:15;15.50;99.90
43151;DHT22;28755;51.478;5.702;2023-10-09T01:06:03;15.50;99.90
43151;DHT22;28755;51.478;5.702;2023-10-09T01:08:35;15.50;99.90
43151;DHT22;28755;51.478;5.702;2023-10-09T01:11:01;15.50;99.90
43151;DHT22;28755;51.478;5.702;2023-10-09T01:13:39;15.60;99.90
43151;DHT22;28755;51.478;5.702;2023-10-09T01:16:24;15.50;99.90
43151;DHT22;28755;51.478;5.702;2023-10-09T01:18:54;15.50;99.90
43151;DHT22;28755;51.478;5.702;2023-10-09T01:21:23;15.60;99.90
43151;DHT22;28755;51.478;5.702;2023-10-09T01:23:51;15.60;99.90
43151;DHT22;28755;51.478;5.702;2023-10-09T01:26:33;15.60;99.90
43151;DHT22;28755;51.478;5.702;2023-10-09T01:29:05;15.60;99.90
43151;DHT22;28755;51.478;5.702;2023-10-09T01:31:36;15.60;99.90
43151;DHT22;28755;51.478;5.702;2023-10-09T01:34:04;15.60;99.90
43151;DHT22;28755;51.478;5.702;2023-10-09T01:36:36;15.60;99.90
43151;DHT22;28755;51.478;5.702;2023-10-09T01:39:04;15.60;99.90
43151;DHT22;28755;51.478;5.702;2023-10-09T01:41:49;15.60;99.90
43151;DHT22;28755;51.478;5.702;2023-10-09T01:44:17;15.60;99.90
43151;DHT22;28755;51.478;5.702;2023-10-09T01:46:44;15.60;99.90
43151;DHT22;28755;51.478;5.702;2023-10-09T01:49:13;15.60;99.90
43151;DHT22;28755;51.478;5.702;2023-10-09T01:51:57;15.60;99.90
43151;DHT22;28755;51.478;5.702;2023-10-09T01:54:36;15.60;99.90
43151;DHT22;28755;51.478;5.702;2023-10-09T01:57:03;15.80;99.90
43151;DHT22;28755;51.478;5.702;2023-10-09T01:59:32;15.70;99.90
43151;DHT22;28755;51.478;5.702;2023-10-09T02:01:58;15.70;99.90
43151;DHT22;28755;51.478;5.702;2023-10-09T02:04:26;15.70;99.90
43151;DHT22;28755;51.478;5.702;2023-10-09T02:06:52;15.70;99.90
43151;DHT22;28755;51.478;5.702;2023-10-09T02:09:18;15.70;99.90
43151;DHT22;28755;51.478;5.702;2023-10-09T02:11:47;15.80;99.90
43151;DHT22;28755;51.478;5.702;2023-10-09T02:14:13;15.70;99.90
43151;DHT22;28755;51.478;5.702;2023-10-09T02:16:48;15.70;99.90
43151;DHT22;28755;51.478;5.702;2023-10-09T02:19:33;15.70;99.90
43151;DHT22;28755;51.478;5.702;2023-10-09T02:22:03;15.70;99.90
43151;DHT22;28755;51.478;5.702;2023-10-09T02:24:43;15.80;99.90
43151;DHT22;28755;51.478;5.702;2023-10-09T02:27:19;15.70;99.90
43151;DHT22;28755;51.478;5.702;2023-10-09T02:30:04;15.70;99.90
43151;DHT22;28755;51.478;5.702;2023-10-09T02:32:43;15.70;99.90
43151;DHT22;28755;51.478;5.702;2023-10-09T02:35:10;15.70;99.90
43151;DHT22;28755;51.478;5.702;2023-10-09T02:37:57;15.70;99.90
43151;DHT22;28755;51.478;5.702;2023-10-09T02:40:27;15.80;99.90
43151;DHT22;28755;51.478;5.702;2023-10-09T02:42:57;15.80;99.90
43151;DHT22;28755;51.478;5.702;2023-10-09T02:45:24;15.70;99.90
43151;DHT22;28755;51.478;5.702;2023-10-09T02:47:54;15.80;99.90
43151;DHT22;28755;51.478;5.702;2023-10-09T02:50:21;15.80;99.90
43151;DHT22;28755;51.478;5.702;2023-10-09T02:52:48;15.80;99.90
43151;DHT22;28755;51.478;5.702;2023-10-09T02:55:24;15.80;99.90
43151;DHT22;28755;51.478;5.702;2023-10-09T02:57:54;15.80;99.90
43151;DHT22;28755;51.478;5.702;2023-10-09T03:00:37;15.80;99.90
43151;DHT22;28755;51.478;5.702;2023-10-09T03:03:05;15.90;99.90
43151;DHT22;28755;51.478;5.702;2023-10-09T03:05:33;15.80;99.90
43151;DHT22;28755;51.478;5.702;2023-10-09T03:07:59;15.80;99.90
43151;DHT22;28755;51.478;5.702;2023-10-09T03:10:24;15.80;99.90
43151;DHT22;28755;51.478;5.702;2023-10-09T03:12:51;16.00;99.90
43151;DHT22;28755;51.478;5.702;2023-10-09T03:15:22;16.00;99.90
43151;DHT22;28755;51.478;5.702;2023-10-09T03:17:48;15.90;99.90
43151;DHT22;28755;51.478;5.702;2023-10-09T03:20:14;15.90;99.90
43151;DHT22;28755;51.478;5.702;2023-10-09T03:22:43;15.90;99.90
43151;DHT22;28755;51.478;5.702;2023-10-09T03:25:10;15.80;99.90
43151;DHT22;28755;51.478;5.702;2023-10-09T03:27:40;15.80;99.90
43151;DHT22;28755;51.478;5.702;2023-10-09T03:30:14;15.90;99.90
43151;DHT22;28755;51.478;5.702;2023-10-09T03:32:43;15.90;99.90
43151;DHT22;28755;51.478;5.702;2023-10-09T03:35:09;15.90;99.90
43151;DHT22;28755;51.478;5.702;2023-10-09T03:37:39;15.90;99.90
43151;DHT22;28755;51.478;5.702;2023-10-09T03:40:05;15.90;99.90
43151;DHT22;28755;51.478;5.702;2023-10-09T03:42:33;15.90;99.90
43151;DHT22;28755;51.478;5.702;2023-10-09T03:45:01;16.10;99.90
43151;DHT22;28755;51.478;5.702;2023-10-09T03:47:31;16.00;99.90
43151;DHT22;28755;51.478;5.702;2023-10-09T03:49:57;15.90;99.90
43151;DHT22;28755;51.478;5.702;2023-10-09T03:52:23;15.80;99.90
43151;DHT22;28755;51.478;5.702;2023-10-09T03:54:52;15.90;99.90
43151;DHT22;28755;51.478;5.702;2023-10-09T03:57:18;15.90;99.90
43151;DHT22;28755;51.478;5.702;2023-10-09T03:59:46;15.90;99.90
43151;DHT22;28755;51.478;5.702;2023-10-09T04:02:17;15.80;99.90
43151;DHT22;28755;51.478;5.702;2023-10-09T04:04:43;15.80;99.90
43151;DHT22;28755;51.478;5.702;2023-10-09T04:07:13;15.80;99.90
43151;DHT22;28755;51.478;5.702;2023-10-09T04:09:38;15.90;99.90
43151;DHT22;28755;51.478;5.702;2023-10-09T04:12:10;15.90;99.90
43151;DHT22;28755;51.478;5.702;2023-10-09T04:14:38;15.90;99.90
43151;DHT22;28755;51.478;5.702;2023-10-09T04:17:16;15.90;99.90
43151;DHT22;28755;51.478;5.702;2023-10-09T04:19:44;16.00;99.90
43151;DHT22;28755;51.478;5.702;2023-10-09T04:22:29;15.90;99.90
43151;DHT22;28755;51.478;5.702;2023-10-09T04:24:56;15.90;99.90
43151;DHT22;28755;51.478;5.702;2023-10-09T04:27:22;15.90;99.90
43151;DHT22;28755;51.478;5.702;2023-10-09T04:29:52;15.90;99.90
43151;DHT22;28755;51.478;5.702;2023-10-09T04:32:19;15.90;99.90
43151;DHT22;28755;51.478;5.702;2023-10-09T04:34:45;15.80;99.90
43151;DHT22;28755;51.478;5.702;2023-10-09T04:37:15;15.70;99.90
43151;DHT22;28755;51.478;5.702;2023-10-09T04:39:43;15.80;99.90
43151;DHT22;28755;51.478;5.702;2023-10-09T04:42:13;15.80;99.90
43151;DHT22;28755;51.478;5.702;2023-10-09T04:44:51;15.80;99.90
43151;DHT22;28755;51.478;5.702;2023-10-09T04:47:30;15.80;99.90
43151;DHT22;28755;51.478;5.702;2023-10-09T04:50:06;15.80;99.90
43151;DHT22;28755;51.478;5.702;2023-10-09T04:52:37;15.80;99.90
43151;DHT22;28755;51.478;5.702;2023-10-09T04:55:03;15.70;99.90
43151;DHT22;28755;51.478;5.702;2023-10-09T05:00:07;15.80;99.90
43151;DHT22;28755;51.478;5.702;2023-10-09T05:02:48;15.80;99.90
43151;DHT22;28755;51.478;5.702;2023-10-09T05:05:20;15.70;99.90
43151;DHT22;28755;51.478;5.702;2023-10-09T05:08:05;15.70;99.90
43151;DHT22;28755;51.478;5.702;2023-10-09T05:11:02;15.80;99.90
43151;DHT22;28755;51.478;5.702;2023-10-09T05:16:09;15.80;99.90
43151;DHT22;28755;51.478;5.702;2023-10-09T05:18:45;15.90;99.90
43151;DHT22;28755;51.478;5.702;2023-10-09T05:21:22;15.80;99.90
43151;DHT22;28755;51.478;5.702;2023-10-09T05:23:57;15.80;99.90
43151;DHT22;28755;51.478;5.702;2023-10-09T05:26:39;15.80;99.90
43151;DHT22;28755;51.478;5.702;2023-10-09T05:29:21;15.90;99.90
43151;DHT22;28755;51.478;5.702;2023-10-09T05:32:04;15.80;99.90
43151;DHT22;28755;51.478;5.702;2023-10-09T05:34:46;15.90;99.90
43151;DHT22;28755;51.478;5.702;2023-10-09T05:37:27;15.90;99.90
43151;DHT22;28755;51.478;5.702;2023-10-09T05:40:01;15.90;99.90
43151;DHT22;28755;51.478;5.702;2023-10-09T05:42:27;15.90;99.90
43151;DHT22;28755;51.478;5.702;2023-10-09T05:45:14;15.90;99.90
43151;DHT22;28755;51.478;5.702;2023-10-09T05:47:50;15.90;99.90
43151;DHT22;28755;51.478;5.702;2023-10-09T05:50:20;15.80;99.90
43151;DHT22;28755;51.478;5.702;2023-10-09T05:52:55;15.90;99.90
43151;DHT22;28755;51.478;5.702;2023-10-09T05:55:22;15.90;99.90
43151;DHT22;28755;51.478;5.702;2023-10-09T05:57:54;15.80;99.90
43151;DHT22;28755;51.478;5.702;2023-10-09T06:00:38;15.90;99.90
43151;DHT22;28755;51.478;5.702;2023-10-09T06:03:22;15.90;99.90
43151;DHT22;28755;51.478;5.702;2023-10-09T06:05:53;15.90;99.90
43151;DHT22;28755;51.478;5.702;2023-10-09T06:08:19;15.90;99.90
43151;DHT22;28755;51.478;5.702;2023-10-09T06:11:04;16.00;99.90
43151;DHT22;28755;51.478;5.702;2023-10-09T06:13:53;15.90;99.90
43151;DHT22;28755;51.478;5.702;2023-10-09T06:16:29;16.00;99.90
43151;DHT22;28755;51.478;5.702;2023-10-09T06:19:14;16.00;99.90
43151;DHT22;28755;51.478;5.702;2023-10-09T06:21:49;16.00;99.90
43151;DHT22;28755;51.478;5.702;2023-10-09T06:24:23;16.00;99.90
43151;DHT22;28755;51.478;5.702;2023-10-09T06:26:51;16.00;99.90
43151;DHT22;28755;51.478;5.702;2023-10-09T06:29:26;16.10;99.90
43151;DHT22;28755;51.478;5.702;2023-10-09T06:32:07;16.10;99.90
43151;DHT22;28755;51.478;5.702;2023-10-09T06:34:56;16.10;99.90
43151;DHT22;28755;51.478;5.702;2023-10-09T06:37:22;16.10;99.90
43151;DHT22;28755;51.478;5.702;2023-10-09T06:39:48;16.10;99.90
43151;DHT22;28755;51.478;5.702;2023-10-09T06:42:37;16.20;99.90
43151;DHT22;28755;51.478;5.702;2023-10-09T06:45:04;16.20;99.90
43151;DHT22;28755;51.478;5.702;2023-10-09T06:47:53;16.10;99.90
43151;DHT22;28755;51.478;5.702;2023-10-09T06:50:22;16.10;99.90
43151;DHT22;28755;51.478;5.702;2023-10-09T06:52:54;16.10;99.90
43151;DHT22;28755;51.478;5.702;2023-10-09T06:55:23;16.20;99.90
43151;DHT22;28755;51.478;5.702;2023-10-09T06:58:00;16.20;99.90
43151;DHT22;28755;51.478;5.702;2023-10-09T07:00:41;16.20;99.90
43151;DHT22;28755;51.478;5.702;2023-10-09T07:03:20;16.20;99.90
43151;DHT22;28755;51.478;5.702;2023-10-09T07:06:05;16.20;99.90
43151;DHT22;28755;51.478;5.702;2023-10-09T07:08:35;16.30;99.90
43151;DHT22;28755;51.478;5.702;2023-10-09T07:11:07;16.30;99.90
43151;DHT22;28755;51.478;5.702;2023-10-09T07:14:16;16.30;99.90
43151;DHT22;28755;51.478;5.702;2023-10-09T07:16:57;16.30;99.90
43151;DHT22;28755;51.478;5.702;2023-10-09T07:19:24;16.30;99.90
43151;DHT22;28755;51.478;5.702;2023-10-09T07:22:06;16.40;99.90
43151;DHT22;28755;51.478;5.702;2023-10-09T07:24:52;16.40;99.90
43151;DHT22;28755;51.478;5.702;2023-10-09T07:27:39;16.40;99.90
43151;DHT22;28755;51.478;5.702;2023-10-09T07:30:15;16.50;99.90
43151;DHT22;28755;51.478;5.702;2023-10-09T07:33:00;16.50;99.90
43151;DHT22;28755;51.478;5.702;2023-10-09T07:35:37;16.60;99.90
43151;DHT22;28755;51.478;5.702;2023-10-09T07:38:10;16.70;99.90
43151;DHT22;28755;51.478;5.702;2023-10-09T07:40:36;16.70;99.90
43151;DHT22;28755;51.478;5.702;2023-10-09T07:43:22;16.80;99.90
43151;DHT22;28755;51.478;5.702;2023-10-09T07:45:53;16.80;99.90
43151;DHT22;28755;51.478;5.702;2023-10-09T07:48:25;16.60;99.90
43151;DHT22;28755;51.478;5.702;2023-10-09T07:51:11;16.70;99.90
43151;DHT22;28755;51.478;5.702;2023-10-09T07:53:36;16.70;99.90
43151;DHT22;28755;51.478;5.702;2023-10-09T07:56:09;16.60;99.90
43151;DHT22;28755;51.478;5.702;2023-10-09T07:58:34;16.60;99.90
43151;DHT22;28755;51.478;5.702;2023-10-09T08:01:12;16.60;99.90
43151;DHT22;28755;51.478;5.702;2023-10-09T08:03:56;16.60;99.90
43151;DHT22;28755;51.478;5.702;2023-10-09T08:06:30;16.60;99.90
43151;DHT22;28755;51.478;5.702;2023-10-09T08:09:06;16.60;99.90
43151;DHT22;28755;51.478;5.702;2023-10-09T08:11:47;16.70;99.90
43151;DHT22;28755;51.478;5.702;2023-10-09T08:14:39;16.70;99.90
43151;DHT22;28755;51.478;5.702;2023-10-09T08:17:08;16.70;99.90
43151;DHT22;28755;51.478;5.702;2023-10-09T08:19:41;16.70;99.90
43151;DHT22;28755;51.478;5.702;2023-10-09T08:24:48;16.70;99.90
43151;DHT22;28755;51.478;5.702;2023-10-09T08:27:23;16.70;99.90
43151;DHT22;28755;51.478;5.702;2023-10-09T08:30:02;16.80;99.90
43151;DHT22;28755;51.478;5.702;2023-10-09T08:32:45;16.90;99.90
43151;DHT22;28755;51.478;5.702;2023-10-09T08:35:36;16.90;99.90
43151;DHT22;28755;51.478;5.702;2023-10-09T08:38:15;16.90;99.90
43151;DHT22;28755;51.478;5.702;2023-10-09T08:40:43;16.90;99.90
43151;DHT22;28755;51.478;5.702;2023-10-09T08:43:21;17.00;99.90
43151;DHT22;28755;51.478;5.702;2023-10-09T08:45:49;17.10;99.90
43151;DHT22;28755;51.478;5.702;2023-10-09T08:48:18;17.20;99.90
43151;DHT22;28755;51.478;5.702;2023-10-09T08:50:45;17.20;99.90
43151;DHT22;28755;51.478;5.702;2023-10-09T08:53:12;17.40;99.90
43151;DHT22;28755;51.478;5.702;2023-10-09T08:55:38;17.50;99.90
43151;DHT22;28755;51.478;5.702;2023-10-09T08:58:05;17.50;99.90
43151;DHT22;28755;51.478;5.702;2023-10-09T09:00:45;17.60;99.90
43151;DHT22;28755;51.478;5.702;2023-10-09T09:03:15;17.50;99.90
43151;DHT22;28755;51.478;5.702;2023-10-09T09:05:47;17.60;99.90
43151;DHT22;28755;51.478;5.702;2023-10-09T09:08:30;17.70;99.90
43151;DHT22;28755;51.478;5.702;2023-10-09T09:13:39;18.30;99.90
43151;DHT22;28755;51.478;5.702;2023-10-09T09:16:13;19.00;99.90
43151;DHT22;28755;51.478;5.702;2023-10-09T09:18:50;19.80;99.90
43151;DHT22;28755;51.478;5.702;2023-10-09T09:21:48;20.10;99.90
43151;DHT22;28755;51.478;5.702;2023-10-09T09:24:16;20.30;99.90
43151;DHT22;28755;51.478;5.702;2023-10-09T09:27:00;20.20;99.90
43151;DHT22;28755;51.478;5.702;2023-10-09T09:32:07;20.60;99.90
43151;DHT22;28755;51.478;5.702;2023-10-09T09:37:19;20.50;99.90
43151;DHT22;28755;51.478;5.702;2023-10-09T09:39:46;20.40;99.90
43151;DHT22;28755;51.478;5.702;2023-10-09T09:42:15;20.40;99.90
43151;DHT22;28755;51.478;5.702;2023-10-09T09:44:44;20.30;99.90
43151;DHT22;28755;51.478;5.702;2023-10-09T09:47:12;20.30;99.90
43151;DHT22;28755;51.478;5.702;2023-10-09T09:49:42;20.20;99.90
43151;DHT22;28755;51.478;5.702;2023-10-09T09:52:09;19.80;99.90
43151;DHT22;28755;51.478;5.702;2023-10-09T09:54:39;19.70;99.90
43151;DHT22;28755;51.478;5.702;2023-10-09T09:57:07;19.50;99.90
43151;DHT22;28755;51.478;5.702;2023-10-09T09:59:40;19.60;99.90
43151;DHT22;28755;51.478;5.702;2023-10-09T10:02:09;19.60;99.90
43151;DHT22;28755;51.478;5.702;2023-10-09T10:04:39;19.60;99.90
43151;DHT22;28755;51.478;5.702;2023-10-09T10:07:06;19.60;99.90
43151;DHT22;28755;51.478;5.702;2023-10-09T10:09:36;19.70;99.90
43151;DHT22;28755;51.478;5.702;2023-10-09T10:12:10;19.90;99.90
43151;DHT22;28755;51.478;5.702;2023-10-09T10:14:53;19.90;99.90
43151;DHT22;28755;51.478;5.702;2023-10-09T10:17:22;20.10;99.90
43151;DHT22;28755;51.478;5.702;2023-10-09T10:22:41;20.40;99.90
43151;DHT22;28755;51.478;5.702;2023-10-09T10:25:41;20.40;99.90
43151;DHT22;28755;51.478;5.702;2023-10-09T10:28:23;20.40;99.90
43151;DHT22;28755;51.478;5.702;2023-10-09T10:31:08;20.40;99.90
43151;DHT22;28755;51.478;5.702;2023-10-09T10:34:07;20.70;99.90
43151;DHT22;28755;51.478;5.702;2023-10-09T10:36:35;20.60;99.90
43151;DHT22;28755;51.478;5.702;2023-10-09T10:39:06;20.60;99.90
43151;DHT22;28755;51.478;5.702;2023-10-09T10:41:58;20.60;99.90
43151;DHT22;28755;51.478;5.702;2023-10-09T10:44:31;20.80;99.90
43151;DHT22;28755;51.478;5.702;2023-10-09T10:47:08;20.80;99.90
43151;DHT22;28755;51.478;5.702;2023-10-09T10:49:54;20.70;99.90
43151;DHT22;28755;51.478;5.702;2023-10-09T10:52:36;21.00;99.90
43151;DHT22;28755;51.478;5.702;2023-10-09T10:55:12;21.00;99.90
43151;DHT22;28755;51.478;5.702;2023-10-09T10:58:18;21.30;99.90
43151;DHT22;28755;51.478;5.702;2023-10-09T11:01:13;21.40;99.90
43151;DHT22;28755;51.478;5.702;2023-10-09T11:03:40;21.60;99.90
43151;DHT22;28755;51.478;5.702;2023-10-09T11:06:31;21.90;99.90
43151;DHT22;28755;51.478;5.702;2023-10-09T11:09:04;22.00;99.90
43151;DHT22;28755;51.478;5.702;2023-10-09T11:11:51;22.50;99.90
43151;DHT22;28755;51.478;5.702;2023-10-09T11:14:20;22.70;99.90
43151;DHT22;28755;51.478;5.702;2023-10-09T11:16:49;22.70;99.90
43151;DHT22;28755;51.478;5.702;2023-10-09T11:19:22;22.80;99.90
43151;DHT22;28755;51.478;5.702;2023-10-09T11:21:55;22.50;99.90
43151;DHT22;28755;51.478;5.702;2023-10-09T11:24:26;22.50;99.90
43151;DHT22;28755;51.478;5.702;2023-10-09T11:26:53;22.70;99.90
43151;DHT22;28755;51.478;5.702;2023-10-09T11:29:23;23.10;99.90
43151;DHT22;28755;51.478;5.702;2023-10-09T11:32:02;24.20;99.90
43151;DHT22;28755;51.478;5.702;2023-10-09T11:34:29;24.80;99.90
43151;DHT22;28755;51.478;5.702;2023-10-09T11:36:56;25.00;99.90
43151;DHT22;28755;51.478;5.702;2023-10-09T11:39:30;25.30;99.90
43151;DHT22;28755;51.478;5.702;2023-10-09T11:42:07;24.80;99.90
43151;DHT22;28755;51.478;5.702;2023-10-09T11:44:40;23.90;99.90
43151;DHT22;28755;51.478;5.702;2023-10-09T11:47:07;23.60;99.90
43151;DHT22;28755;51.478;5.702;2023-10-09T11:49:55;23.40;99.90
43151;DHT22;28755;51.478;5.702;2023-10-09T11:52:31;23.00;99.90
43151;DHT22;28755;51.478;5.702;2023-10-09T11:55:04;23.40;99.90
43151;DHT22;28755;51.478;5.702;2023-10-09T11:57:40;23.40;99.90
43151;DHT22;28755;51.478;5.702;2023-10-09T12:00:06;23.40;99.90
43151;DHT22;28755;51.478;5.702;2023-10-09T12:02:55;23.20;99.90
43151;DHT22;28755;51.478;5.702;2023-10-09T12:05:20;23.00;99.90
43151;DHT22;28755;51.478;5.702;2023-10-09T12:07:46;22.50;99.90
43151;DHT22;28755;51.478;5.702;2023-10-09T12:10:12;22.30;99.90
43151;DHT22;28755;51.478;5.702;2023-10-09T12:12:41;21.90;99.90
43151;DHT22;28755;51.478;5.702;2023-10-09T12:15:12;21.80;99.90
43151;DHT22;28755;51.478;5.702;2023-10-09T12:17:44;21.70;99.90
43151;DHT22;28755;51.478;5.702;2023-10-09T12:20:10;21.60;99.90
43151;DHT22;28755;51.478;5.702;2023-10-09T12:22:47;21.50;99.90
43151;DHT22;28755;51.478;5.702;2023-10-09T12:25:12;21.50;99.90
43151;DHT22;28755;51.478;5.702;2023-10-09T12:27:39;21.60;99.90
43151;DHT22;28755;51.478;5.702;2023-10-09T12:30:05;21.60;99.90
43151;DHT22;28755;51.478;5.702;2023-10-09T12:32:31;21.50;99.90
43151;DHT22;28755;51.478;5.702;2023-10-09T12:35:01;21.40;99.90
43151;DHT22;28755;51.478;5.702;2023-10-09T12:37:27;21.20;99.90
43151;DHT22;28755;51.478;5.702;2023-10-09T12:39:52;21.40;99.90
43151;DHT22;28755;51.478;5.702;2023-10-09T12:42:21;21.40;99.90
43151;DHT22;28755;51.478;5.702;2023-10-09T12:44:47;21.40;99.90
43151;DHT22;28755;51.478;5.702;2023-10-09T12:47:14;21.40;99.90
43151;DHT22;28755;51.478;5.702;2023-10-09T12:49:39;21.40;99.90
43151;DHT22;28755;51.478;5.702;2023-10-09T12:52:07;21.50;99.90
43151;DHT22;28755;51.478;5.702;2023-10-09T12:54:41;21.60;99.90
43151;DHT22;28755;51.478;5.702;2023-10-09T12:57:07;21.90;99.90
43151;DHT22;28755;51.478;5.702;2023-10-09T12:59:39;21.90;99.90
43151;DHT22;28755;51.478;5.702;2023-10-09T13:02:11;21.90;99.90
43151;DHT22;28755;51.478;5.702;2023-10-09T13:04:37;21.80;99.90
43151;DHT22;28755;51.478;5.702;2023-10-09T13:07:06;21.70;99.90
43151;DHT22;28755;51.478;5.702;2023-10-09T13:09:33;21.80;99.90
43151;DHT22;28755;51.478;5.702;2023-10-09T13:12:01;21.80;99.90
43151;DHT22;28755;51.478;5.702;2023-10-09T13:14:27;22.10;99.90
43151;DHT22;28755;51.478;5.702;2023-10-09T13:16:53;22.40;99.90
43151;DHT22;28755;51.478;5.702;2023-10-09T13:19:19;22.60;99.90
43151;DHT22;28755;51.478;5.702;2023-10-09T13:21:44;22.70;99.90
43151;DHT22;28755;51.478;5.702;2023-10-09T13:24:10;22.50;99.90
43151;DHT22;28755;51.478;5.702;2023-10-09T13:26:44;22.40;99.90
43151;DHT22;28755;51.478;5.702;2023-10-09T13:29:16;22.20;99.90
43151;DHT22;28755;51.478;5.702;2023-10-09T13:31:48;22.20;99.90
43151;DHT22;28755;51.478;5.702;2023-10-09T13:34:16;22.30;99.90
43151;DHT22;28755;51.478;5.702;2023-10-09T13:36:42;22.30;99.90
43151;DHT22;28755;51.478;5.702;2023-10-09T13:39:31;22.00;99.90
43151;DHT22;28755;51.478;5.702;2023-10-09T13:42:03;22.00;99.90
43151;DHT22;28755;51.478;5.702;2023-10-09T13:44:33;22.00;99.90
43151;DHT22;28755;51.478;5.702;2023-10-09T13:47:04;22.00;99.90
43151;DHT22;28755;51.478;5.702;2023-10-09T13:49:35;21.90;99.90
43151;DHT22;28755;51.478;5.702;2023-10-09T13:52:03;21.80;99.90
43151;DHT22;28755;51.478;5.702;2023-10-09T13:54:29;22.00;99.90
43151;DHT22;28755;51.478;5.702;2023-10-09T13:57:02;22.30;99.90
43151;DHT22;28755;51.478;5.702;2023-10-09T13:59:32;22.50;99.90
43151;DHT22;28755;51.478;5.702;2023-10-09T14:02:00;22.70;99.90
43151;DHT22;28755;51.478;5.702;2023-10-09T14:04:28;22.80;99.90
43151;DHT22;28755;51.478;5.702;2023-10-09T14:06:54;22.90;99.90
43151;DHT22;28755;51.478;5.702;2023-10-09T14:09:24;22.70;99.90
43151;DHT22;28755;51.478;5.702;2023-10-09T14:12:21;22.80;99.90
43151;DHT22;28755;51.478;5.702;2023-10-09T14:14:47;22.70;99.90
43151;DHT22;28755;51.478;5.702;2023-10-09T14:17:20;22.70;99.90
43151;DHT22;28755;51.478;5.702;2023-10-09T14:19:51;22.70;99.90
43151;DHT22;28755;51.478;5.702;2023-10-09T14:22:19;22.60;99.90
43151;DHT22;28755;51.478;5.702;2023-10-09T14:24:46;22.40;99.90
43151;DHT22;28755;51.478;5.702;2023-10-09T14:27:15;22.30;99.90
43151;DHT22;28755;51.478;5.702;2023-10-09T14:29:45;22.40;99.90
43151;DHT22;28755;51.478;5.702;2023-10-09T14:32:11;22.50;99.90
43151;DHT22;28755;51.478;5.702;2023-10-09T14:34:40;22.60;99.90
43151;DHT22;28755;51.478;5.702;2023-10-09T14:37:18;22.70;99.90
43151;DHT22;28755;51.478;5.702;2023-10-09T14:39:45;22.70;99.90
43151;DHT22;28755;51.478;5.702;2023-10-09T14:42:14;22.80;99.90
43151;DHT22;28755;51.478;5.702;2023-10-09T14:44:41;23.00;99.90
43151;DHT22;28755;51.478;5.702;2023-10-09T14:47:07;23.10;99.90
43151;DHT22;28755;51.478;5.702;2023-10-09T14:49:34;23.20;99.90
43151;DHT22;28755;51.478;5.702;2023-10-09T14:52:03;23.30;99.90
43151;DHT22;28755;51.478;5.702;2023-10-09T14:54:29;23.30;99.90
43151;DHT22;28755;51.478;5.702;2023-10-09T14:56:54;23.10;99.90
43151;DHT22;28755;51.478;5.702;2023-10-09T14:59:20;22.80;99.90
43151;DHT22;28755;51.478;5.702;2023-10-09T15:01:48;22.70;99.90
43151;DHT22;28755;51.478;5.702;2023-10-09T15:04:15;22.70;99.90
43151;DHT22;28755;51.478;5.702;2023-10-09T15:06:41;22.50;99.90
43151;DHT22;28755;51.478;5.702;2023-10-09T15:09:07;22.30;99.90
43151;DHT22;28755;51.478;5.702;2023-10-09T15:11:47;22.10;99.90
43151;DHT22;28755;51.478;5.702;2023-10-09T15:14:14;21.90;99.90
43151;DHT22;28755;51.478;5.702;2023-10-09T15:16:39;21.90;99.90
43151;DHT22;28755;51.478;5.702;2023-10-09T15:19:08;21.90;99.90
43151;DHT22;28755;51.478;5.702;2023-10-09T15:21:37;21.80;99.90
43151;DHT22;28755;51.478;5.702;2023-10-09T15:24:10;21.80;99.90
43151;DHT22;28755;51.478;5.702;2023-10-09T15:26:44;21.70;99.90
43151;DHT22;28755;51.478;5.702;2023-10-09T15:29:17;21.70;99.90
43151;DHT22;28755;51.478;5.702;2023-10-09T15:31:45;21.70;99.90
43151;DHT22;28755;51.478;5.702;2023-10-09T15:34:12;21.60;99.90
43151;DHT22;28755;51.478;5.702;2023-10-09T15:36:38;21.60;99.90
43151;DHT22;28755;51.478;5.702;2023-10-09T15:39:05;21.60;99.90
43151;DHT22;28755;51.478;5.702;2023-10-09T15:41:33;21.60;99.90
43151;DHT22;28755;51.478;5.702;2023-10-09T15:44:00;21.60;99.90
43151;DHT22;28755;51.478;5.702;2023-10-09T15:46:27;21.50;99.90
43151;DHT22;28755;51.478;5.702;2023-10-09T15:48:58;21.60;99.90
43151;DHT22;28755;51.478;5.702;2023-10-09T15:51:24;21.60;99.90
43151;DHT22;28755;51.478;5.702;2023-10-09T15:53:51;21.70;99.90
43151;DHT22;28755;51.478;5.702;2023-10-09T15:56:17;21.70;99.90
43151;DHT22;28755;51.478;5.702;2023-10-09T15:58:43;21.70;99.90
43151;DHT22;28755;51.478;5.702;2023-10-09T16:01:13;21.60;99.90
43151;DHT22;28755;51.478;5.702;2023-10-09T16:03:42;21.60;99.90
43151;DHT22;28755;51.478;5.702;2023-10-09T16:06:12;21.60;99.90
43151;DHT22;28755;51.478;5.702;2023-10-09T16:08:45;21.70;99.90
43151;DHT22;28755;51.478;5.702;2023-10-09T16:11:20;21.60;99.90
43151;DHT22;28755;51.478;5.702;2023-10-09T16:13:53;21.60;99.90
43151;DHT22;28755;51.478;5.702;2023-10-09T16:16:25;21.60;99.90
43151;DHT22;28755;51.478;5.702;2023-10-09T16:18:50;21.50;99.90
43151;DHT22;28755;51.478;5.702;2023-10-09T16:21:16;21.50;99.90